createdAt,value
2019-01-29T00:01:45.953Z,14.50
2019-01-29T00:04:21.410Z,14.30
2019-01-29T00:06:55.617Z,14.30
2019-01-29T00:09:31.273Z,14.30
2019-01-29T00:12:05.561Z,14.30
2019-01-29T00:14:40.439Z,14.10
2019-01-29T00:17:15.485Z,14.00
2019-01-29T00:19:50.214Z,14.00
2019-01-29T00:22:24.420Z,14.10
2019-01-29T00:25:00.363Z,14.10
2019-01-29T00:27:35.496Z,14.20
2019-01-29T00:30:10.973Z,14.40
2019-01-29T00:32:46.161Z,14.30
2019-01-29T00:35:23.070Z,14.40
2019-01-29T00:37:58.533Z,14.30
2019-01-29T00:40:33.974Z,14.30
2019-01-29T00:43:10.686Z,14.20
2019-01-29T00:45:45.471Z,14.30
2019-01-29T00:48:21.067Z,14.20
2019-01-29T00:50:55.859Z,14.00
2019-01-29T00:53:30.742Z,13.90
2019-01-29T00:56:05.156Z,13.80
2019-01-29T00:58:40.409Z,13.90
2019-01-29T01:01:15.548Z,14.00
2019-01-29T01:03:50.306Z,14.20
2019-01-29T01:06:25.641Z,14.20
2019-01-29T01:08:59.968Z,14.20
2019-01-29T01:11:34.356Z,14.10
2019-01-29T01:14:09.163Z,13.90
2019-01-29T01:16:43.855Z,13.70
2019-01-29T01:19:19.102Z,13.70
2019-01-29T01:21:53.758Z,13.80
2019-01-29T01:24:29.225Z,14.00
2019-01-29T01:27:04.030Z,14.00
2019-01-29T01:29:40.008Z,14.00
2019-01-29T01:32:15.148Z,14.20
2019-01-29T01:34:51.281Z,14.20
2019-01-29T01:37:26.228Z,14.30
2019-01-29T01:40:01.687Z,14.20
2019-01-29T01:42:37.903Z,14.30
2019-01-29T01:45:13.635Z,14.50
2019-01-29T01:47:48.635Z,14.40
2019-01-29T01:50:24.577Z,14.40
2019-01-29T01:52:59.742Z,14.40
2019-01-29T01:55:34.561Z,14.40
2019-01-29T01:58:09.230Z,14.50
2019-01-29T02:00:43.664Z,14.40
2019-01-29T02:03:18.521Z,14.40
2019-01-29T02:05:54.431Z,14.40
2019-01-29T02:08:29.186Z,14.50
2019-01-29T02:11:04.292Z,14.60
2019-01-29T02:13:39.759Z,14.60
2019-01-29T02:16:14.540Z,14.60
2019-01-29T02:18:49.783Z,14.60
2019-01-29T02:21:24.816Z,14.60
2019-01-29T02:24:00.790Z,14.80
2019-01-29T02:26:35.191Z,15.00
2019-01-29T02:29:09.407Z,14.90
2019-01-29T02:31:44.844Z,14.80
2019-01-29T02:34:20.560Z,14.80
2019-01-29T02:36:55.432Z,14.60
2019-01-29T02:39:29.800Z,14.40
2019-01-29T02:42:05.422Z,14.40
2019-01-29T02:44:41.357Z,14.30
2019-01-29T02:47:16.421Z,14.10
2019-01-29T02:49:52.060Z,13.80
2019-01-29T02:52:27.074Z,13.90
2019-01-29T02:55:02.479Z,13.80
2019-01-29T02:57:37.343Z,14.00
2019-01-29T03:00:20.089Z,14.10
2019-01-29T03:02:55.013Z,14.10
2019-01-29T03:05:30.187Z,14.10
2019-01-29T03:08:04.419Z,14.30
2019-01-29T03:10:38.649Z,14.50
2019-01-29T03:13:15.400Z,14.70
2019-01-29T03:15:52.089Z,14.80
2019-01-29T03:18:26.425Z,14.70
2019-01-29T03:21:00.786Z,14.90
2019-01-29T03:23:35.910Z,14.90
2019-01-29T03:26:12.051Z,14.80
2019-01-29T03:28:48.871Z,14.70
2019-01-29T03:31:23.252Z,14.80
2019-01-29T03:33:58.216Z,14.80
2019-01-29T03:36:33.129Z,14.50
2019-01-29T03:39:10.188Z,14.40
2019-01-29T03:41:44.527Z,14.60
2019-01-29T03:44:19.184Z,14.70
2019-01-29T03:46:54.162Z,14.90
2019-01-29T03:49:30.240Z,14.60
2019-01-29T03:52:06.601Z,14.40
2019-01-29T03:54:42.260Z,14.30
2019-01-29T03:57:16.876Z,14.50
2019-01-29T03:59:51.204Z,15.00
2019-01-29T04:02:27.328Z,14.80
2019-01-29T04:05:02.329Z,14.60
2019-01-29T04:07:37.351Z,14.50
2019-01-29T04:10:15.888Z,14.60
2019-01-29T04:12:51.194Z,14.60
2019-01-29T04:15:26.450Z,14.60
2019-01-29T04:18:04.941Z,14.40
2019-01-29T04:20:40.105Z,14.20
2019-01-29T04:23:15.074Z,14.00
2019-01-29T04:25:51.525Z,13.90
2019-01-29T04:28:27.957Z,13.90
2019-01-29T04:31:04.043Z,13.90
2019-01-29T04:33:39.578Z,14.00
2019-01-29T04:36:13.901Z,14.10
2019-01-29T04:38:48.788Z,14.10
2019-01-29T04:41:24.860Z,14.20
2019-01-29T04:43:59.689Z,14.10
2019-01-29T04:46:35.671Z,14.00
2019-01-29T04:49:10.195Z,13.90
2019-01-29T04:51:45.638Z,14.00
2019-01-29T04:54:19.897Z,14.00
2019-01-29T04:56:54.932Z,13.70
2019-01-29T04:59:30.145Z,13.50
2019-01-29T05:02:04.511Z,13.40
2019-01-29T05:04:40.031Z,13.20
2019-01-29T05:07:16.051Z,13.40
2019-01-29T05:09:50.973Z,13.60
2019-01-29T05:12:24.317Z,13.70
2019-01-29T05:14:59.071Z,13.90
2019-01-29T05:17:34.702Z,13.60
2019-01-29T05:20:12.179Z,13.20
2019-01-29T05:22:46.171Z,13.30
2019-01-29T05:25:20.495Z,13.50
2019-01-29T05:27:54.312Z,13.20
2019-01-29T05:30:28.664Z,12.80
2019-01-29T05:33:02.783Z,12.80
2019-01-29T05:35:37.181Z,13.10
2019-01-29T05:38:11.122Z,13.50
2019-01-29T05:40:45.509Z,13.50
2019-01-29T05:43:19.760Z,13.90
2019-01-29T05:45:53.936Z,14.10
2019-01-29T05:48:28.048Z,14.10
2019-01-29T05:51:02.179Z,14.20
2019-01-29T05:53:36.359Z,14.10
2019-01-29T05:56:10.789Z,14.00
2019-01-29T05:58:45.128Z,14.10
2019-01-29T06:01:20.018Z,14.20
2019-01-29T06:03:54.522Z,14.40
2019-01-29T06:06:28.596Z,14.40
2019-01-29T06:09:02.912Z,14.10
2019-01-29T06:11:36.708Z,14.10
2019-01-29T06:14:10.541Z,14.20
2019-01-29T06:16:44.610Z,14.10
2019-01-29T06:19:18.231Z,13.90
2019-01-29T06:21:51.908Z,13.50
2019-01-29T06:24:26.216Z,12.60
2019-01-29T06:27:00.068Z,12.20
2019-01-29T06:29:33.430Z,11.90
2019-01-29T06:32:07.425Z,11.70
2019-01-29T06:34:40.755Z,11.50
2019-01-29T06:37:14.979Z,11.50
2019-01-29T06:39:49.073Z,11.30
2019-01-29T06:42:24.054Z,11.60
2019-01-29T06:44:58.786Z,11.40
2019-01-29T06:47:33.659Z,11.20
2019-01-29T06:50:08.847Z,10.90
2019-01-29T06:52:42.801Z,11.00
2019-01-29T06:55:19.628Z,11.20
2019-01-29T06:57:56.114Z,11.40
2019-01-29T07:00:32.749Z,11.70
2019-01-29T07:03:06.590Z,11.40
2019-01-29T07:05:40.575Z,11.50
2019-01-29T07:08:14.487Z,11.70
2019-01-29T07:10:49.120Z,11.70
2019-01-29T07:13:23.817Z,11.60
2019-01-29T07:16:19.855Z,11.40
2019-01-29T07:19:18.714Z,11.70
2019-01-29T07:21:52.663Z,11.70
2019-01-29T07:24:27.039Z,11.40
2019-01-29T07:27:01.532Z,11.10
2019-01-29T07:29:35.719Z,11.30
2019-01-29T07:32:09.273Z,11.20
2019-01-29T07:34:43.804Z,11.20
2019-01-29T07:37:22.139Z,11.50
2019-01-29T07:39:53.469Z,11.40
2019-01-29T07:42:27.547Z,11.60
2019-01-29T07:45:02.331Z,11.80
2019-01-29T07:47:37.684Z,11.80
2019-01-29T07:50:11.568Z,11.70
2019-01-29T07:52:46.252Z,11.70
2019-01-29T07:55:20.031Z,11.60
2019-01-29T07:57:54.252Z,11.80
2019-01-29T08:00:30.479Z,12.30
2019-01-29T08:03:03.845Z,12.70
2019-01-29T08:05:38.314Z,12.90
2019-01-29T08:08:14.025Z,12.70
2019-01-29T08:10:48.990Z,12.20
2019-01-29T08:13:23.625Z,11.20
2019-01-29T08:15:57.437Z,10.70
2019-01-29T08:18:35.887Z,10.20
2019-01-29T08:21:08.470Z,10.00
2019-01-29T08:23:42.460Z,10.20
2019-01-29T08:26:15.752Z,10.60
2019-01-29T08:28:49.953Z,11.10
2019-01-29T08:31:24.334Z,11.00
2019-01-29T08:33:57.985Z,11.30
2019-01-29T08:36:30.998Z,11.40
2019-01-29T08:39:05.224Z,11.80
2019-01-29T08:41:39.948Z,12.50
2019-01-29T08:44:13.768Z,12.80
2019-01-29T08:46:48.155Z,12.60
2019-01-29T08:49:22.229Z,12.40
2019-01-29T08:51:55.718Z,12.10
2019-01-29T08:54:30.419Z,11.60
2019-01-29T08:57:03.613Z,11.40
2019-01-29T08:59:36.942Z,11.40
2019-01-29T09:02:11.435Z,11.60
2019-01-29T09:04:45.164Z,11.20
2019-01-29T09:07:19.312Z,11.50
2019-01-29T09:09:52.607Z,11.70
2019-01-29T09:12:26.804Z,11.60
2019-01-29T09:15:02.380Z,12.10
2019-01-29T09:17:37.234Z,12.10
2019-01-29T09:20:12.313Z,12.40
2019-01-29T09:22:47.111Z,12.30
2019-01-29T09:25:22.733Z,11.70
2019-01-29T09:27:55.801Z,11.40
2019-01-29T09:30:28.931Z,11.00
2019-01-29T09:33:02.451Z,10.40
2019-01-29T09:35:36.233Z,10.30
2019-01-29T09:38:09.200Z,10.40
2019-01-29T09:40:42.617Z,10.50
2019-01-29T09:43:16.089Z,10.50
2019-01-29T09:45:50.494Z,10.60
2019-01-29T09:48:24.035Z,10.60
2019-01-29T09:50:57.322Z,10.10
2019-01-29T09:53:31.247Z,9.80
2019-01-29T09:56:04.508Z,10.10
2019-01-29T09:58:38.787Z,9.70
2019-01-29T10:01:11.701Z,9.50
2019-01-29T10:03:45.871Z,9.40
2019-01-29T10:06:21.200Z,9.60
2019-01-29T10:08:55.104Z,9.20
2019-01-29T10:11:28.701Z,8.90
2019-01-29T10:14:02.576Z,9.10
2019-01-29T10:16:35.558Z,9.20
2019-01-29T10:19:09.823Z,8.90
2019-01-29T10:21:43.801Z,8.90
2019-01-29T10:24:17.849Z,8.90
2019-01-29T10:26:51.297Z,9.10
2019-01-29T10:29:24.780Z,9.40
2019-01-29T10:31:58.033Z,9.60
2019-01-29T10:34:33.643Z,9.70
2019-01-29T10:37:06.720Z,9.80
2019-01-29T10:39:40.474Z,10.20
2019-01-29T10:42:14.955Z,10.00
2019-01-29T10:44:48.803Z,9.40
2019-01-29T10:47:22.114Z,9.00
2019-01-29T10:49:55.562Z,8.70
2019-01-29T10:52:29.134Z,8.60
2019-01-29T10:55:02.022Z,8.70
2019-01-29T10:57:34.996Z,9.40
2019-01-29T11:00:12.227Z,9.40
2019-01-29T11:02:44.919Z,9.50
2019-01-29T11:05:20.406Z,9.70
2019-01-29T11:07:53.979Z,9.60
2019-01-29T11:10:28.039Z,9.60
2019-01-29T11:13:01.498Z,9.30
2019-01-29T11:15:37.880Z,9.40
2019-01-29T11:18:15.546Z,9.20
2019-01-29T11:20:49.736Z,9.00
2019-01-29T11:23:22.857Z,9.40
2019-01-29T11:25:56.952Z,9.80
2019-01-29T11:28:30.450Z,9.80
2019-01-29T11:31:04.085Z,9.50
2019-01-29T11:33:37.553Z,9.10
2019-01-29T11:36:11.186Z,9.20
2019-01-29T11:38:44.659Z,9.10
2019-01-29T11:41:19.797Z,9.30
2019-01-29T11:43:54.256Z,8.90
2019-01-29T11:46:28.217Z,9.00
2019-01-29T11:49:02.850Z,8.70
2019-01-29T11:51:37.064Z,9.00
2019-01-29T11:54:10.489Z,8.60
2019-01-29T11:56:44.693Z,8.40
2019-01-29T11:59:19.409Z,8.30
2019-01-29T12:01:53.944Z,8.60
2019-01-29T12:04:27.660Z,9.00
2019-01-29T12:09:58.328Z,9.20
2019-01-29T12:12:33.020Z,9.20
2019-01-29T12:15:08.360Z,9.50
2019-01-29T12:17:41.881Z,10.30
2019-01-29T12:20:17.846Z,11.20
2019-01-29T12:22:52.485Z,11.70
2019-01-29T12:25:26.477Z,11.70
2019-01-29T12:28:00.404Z,12.10
2019-01-29T12:30:33.359Z,11.30
2019-01-29T12:33:09.257Z,11.40
2019-01-29T12:35:42.803Z,11.60
2019-01-29T12:38:16.596Z,11.90
2019-01-29T12:40:50.857Z,12.20
2019-01-29T12:43:24.885Z,11.90
2019-01-29T12:45:59.421Z,11.30
2019-01-29T12:48:33.270Z,10.90
2019-01-29T12:51:13.405Z,11.00
2019-01-29T12:53:47.647Z,11.10
2019-01-29T12:56:22.292Z,11.10
2019-01-29T12:58:54.898Z,10.60
2019-01-29T13:02:06.261Z,11.00
2019-01-29T13:04:41.792Z,10.40
2019-01-29T13:07:16.503Z,10.40
2019-01-29T13:10:02.753Z,10.80
2019-01-29T13:12:36.612Z,10.50
2019-01-29T13:15:11.464Z,10.70
2019-01-29T13:17:45.155Z,10.40
2019-01-29T13:20:18.509Z,10.50
2019-01-29T13:22:55.367Z,11.30
2019-01-29T13:25:28.473Z,12.50
2019-01-29T13:28:01.174Z,12.40
2019-01-29T13:30:39.255Z,12.70
2019-01-29T13:33:16.492Z,12.80
2019-01-29T13:35:50.487Z,12.20
2019-01-29T13:38:26.205Z,12.60
2019-01-29T13:40:58.505Z,12.50
2019-01-29T13:43:34.640Z,11.90
2019-01-29T13:46:08.178Z,11.00
2019-01-29T13:48:41.744Z,11.00
2019-01-29T13:51:16.001Z,11.20
2019-01-29T13:53:49.545Z,10.70
2019-01-29T13:56:22.574Z,10.90
2019-01-29T13:58:55.886Z,11.30
2019-01-29T14:01:30.628Z,12.50
2019-01-29T14:04:06.168Z,11.90
2019-01-29T14:06:41.586Z,11.60
2019-01-29T14:09:14.202Z,11.40
2019-01-29T14:11:48.510Z,12.10
2019-01-29T14:14:21.711Z,12.40
2019-01-29T14:16:54.694Z,12.00
2019-01-29T14:19:27.580Z,11.80
2019-01-29T14:22:03.778Z,11.90
2019-01-29T14:24:39.006Z,12.30
2019-01-29T14:27:13.887Z,12.80
2019-01-29T14:29:46.120Z,12.90
2019-01-29T14:32:21.090Z,13.20
2019-01-29T14:34:58.813Z,13.70
2019-01-29T14:37:33.977Z,13.90
2019-01-29T14:40:20.850Z,14.30
2019-01-29T14:42:54.417Z,14.50
2019-01-29T14:45:29.776Z,14.40
2019-01-29T14:48:03.572Z,14.00
2019-01-29T14:50:36.636Z,13.90
2019-01-29T14:53:09.962Z,13.70
2019-01-29T14:55:42.742Z,13.50
2019-01-29T14:58:14.896Z,13.70
2019-01-29T15:00:48.774Z,13.80
2019-01-29T15:03:22.577Z,13.70
2019-01-29T15:05:57.435Z,13.90
2019-01-29T15:08:31.536Z,14.00
2019-01-29T15:11:04.802Z,14.10
2019-01-29T15:13:38.973Z,14.10
2019-01-29T15:16:39.371Z,14.30
2019-01-29T15:19:16.338Z,14.20
2019-01-29T15:21:53.148Z,14.30
2019-01-29T15:24:26.919Z,14.40
2019-01-29T15:27:05.774Z,14.40
2019-01-29T15:29:38.138Z,14.40
2019-01-29T15:32:12.572Z,14.10
2019-01-29T15:34:46.752Z,14.10
2019-01-29T15:37:20.107Z,14.00
2019-01-29T15:39:54.354Z,13.60
2019-01-29T15:42:28.626Z,12.90
2019-01-29T15:45:03.563Z,12.40
2019-01-29T15:47:38.089Z,11.90
2019-01-29T15:50:13.969Z,12.30
2019-01-29T15:52:48.684Z,12.90
2019-01-29T15:55:22.201Z,13.30
2019-01-29T15:57:56.073Z,12.60
2019-01-29T16:00:31.631Z,12.90
2019-01-29T16:03:06.572Z,13.00
2019-01-29T16:05:41.810Z,13.20
2019-01-29T16:08:14.754Z,13.50
2019-01-29T16:10:47.963Z,13.20
2019-01-29T16:13:21.682Z,13.10
2019-01-29T16:15:56.120Z,13.30
2019-01-29T16:18:31.363Z,13.60
2019-01-29T16:21:05.235Z,13.80
2019-01-29T16:23:40.325Z,14.10
2019-01-29T16:26:13.711Z,14.50
2019-01-29T16:28:47.230Z,14.40
2019-01-29T16:31:21.123Z,14.60
2019-01-29T16:33:54.375Z,14.80
2019-01-29T16:36:28.072Z,14.90
2019-01-29T16:39:03.016Z,15.00
2019-01-29T16:41:36.963Z,15.00
2019-01-29T16:44:10.986Z,15.00
2019-01-29T16:46:46.528Z,14.90
2019-01-29T16:49:20.947Z,14.90
2019-01-29T16:51:56.158Z,15.00
2019-01-29T16:54:30.654Z,15.10
2019-01-29T16:57:05.195Z,15.10
2019-01-29T16:59:39.434Z,15.10
2019-01-29T17:02:14.028Z,15.20
2019-01-29T17:04:49.136Z,15.10
2019-01-29T17:07:23.437Z,15.20
2019-01-29T17:09:58.926Z,15.30
2019-01-29T17:12:32.785Z,15.30
2019-01-29T17:15:08.614Z,15.30
2019-01-29T17:17:43.317Z,15.30
2019-01-29T17:20:21.302Z,15.40
2019-01-29T17:22:57.028Z,15.50
2019-01-29T17:25:32.482Z,15.70
2019-01-29T17:28:07.706Z,15.70
2019-01-29T17:30:45.298Z,15.60
2019-01-29T17:33:21.955Z,15.40
2019-01-29T17:35:57.186Z,15.30
2019-01-29T17:38:31.140Z,15.40
2019-01-29T17:41:05.552Z,15.30
2019-01-29T17:43:40.347Z,15.30
2019-01-29T17:46:15.736Z,15.20
2019-01-29T17:48:49.878Z,15.00
2019-01-29T17:51:24.703Z,14.90
2019-01-29T17:53:59.752Z,15.00
2019-01-29T17:56:34.029Z,15.00
2019-01-29T17:59:08.289Z,15.00
2019-01-29T18:01:43.264Z,15.10
2019-01-29T18:04:18.063Z,15.20
2019-01-29T18:06:53.327Z,15.20
2019-01-29T18:09:27.601Z,15.20
2019-01-29T18:12:01.005Z,15.10
2019-01-29T18:14:33.918Z,15.00
2019-01-29T18:17:07.689Z,15.00
2019-01-29T18:19:40.464Z,14.90
2019-01-29T18:22:13.314Z,14.90
2019-01-29T18:24:45.830Z,14.80
2019-01-29T18:27:19.679Z,14.80
2019-01-29T18:29:53.130Z,14.60
2019-01-29T18:32:26.571Z,14.50
2019-01-29T18:34:58.891Z,14.40
2019-01-29T18:37:33.108Z,14.30
2019-01-29T18:40:07.553Z,14.20
2019-01-29T18:42:40.835Z,14.20
2019-01-29T18:45:14.323Z,14.20
2019-01-29T18:47:48.075Z,14.10
2019-01-29T18:50:21.732Z,14.20
2019-01-29T18:52:56.162Z,14.10
2019-01-29T18:55:31.129Z,14.10
2019-01-29T18:58:11.650Z,14.00
2019-01-29T19:00:43.085Z,14.00
2019-01-29T19:03:18.153Z,14.00
2019-01-29T19:05:53.457Z,14.00
2019-01-29T19:08:27.879Z,14.00
2019-01-29T19:11:02.989Z,14.00
2019-01-29T19:13:38.737Z,13.90
2019-01-29T19:16:12.619Z,13.90
2019-01-29T19:18:47.410Z,13.90
2019-01-29T19:21:22.548Z,13.90
2019-01-29T19:23:58.838Z,13.80
2019-01-29T19:26:32.875Z,13.80
2019-01-29T19:29:07.779Z,13.80
2019-01-29T19:31:42.998Z,13.80
2019-01-29T19:34:17.807Z,13.70
2019-01-29T19:36:52.628Z,13.60
2019-01-29T19:39:27.296Z,13.60
2019-01-29T19:42:01.724Z,13.70
2019-01-29T19:44:36.710Z,13.70
2019-01-29T19:47:12.224Z,13.60
2019-01-29T19:49:46.048Z,13.60
2019-01-29T19:52:20.983Z,13.60
2019-01-29T19:54:54.219Z,13.50
2019-01-29T19:57:28.671Z,13.50
2019-01-29T20:00:02.140Z,13.50
2019-01-29T20:02:36.622Z,13.40
2019-01-29T20:05:10.699Z,13.30
2019-01-29T20:07:44.308Z,13.20
2019-01-29T20:10:19.443Z,13.30
2019-01-29T20:12:53.030Z,13.30
2019-01-29T20:15:27.267Z,13.30
2019-01-29T20:18:01.028Z,13.30
2019-01-29T20:20:38.554Z,13.30
2019-01-29T20:23:13.295Z,13.30
2019-01-29T20:25:47.270Z,13.20
2019-01-29T20:28:20.820Z,13.20
2019-01-29T20:30:55.421Z,13.30
2019-01-29T20:33:31.694Z,13.40
2019-01-29T20:36:06.038Z,13.20
2019-01-29T20:38:40.107Z,12.60
2019-01-29T20:41:14.581Z,12.30
2019-01-29T20:43:48.904Z,12.50
2019-01-29T20:46:23.861Z,12.80
2019-01-29T20:49:18.893Z,13.00
2019-01-29T20:51:53.253Z,13.10
2019-01-29T20:54:28.411Z,13.20
2019-01-29T20:57:03.432Z,13.30
2019-01-29T20:59:39.493Z,13.30
2019-01-29T21:02:13.822Z,13.20
2019-01-29T21:04:48.132Z,13.30
2019-01-29T21:07:22.661Z,13.20
2019-01-29T21:09:58.400Z,13.10
2019-01-29T21:12:33.067Z,13.30
2019-01-29T21:15:09.082Z,13.30
2019-01-29T21:17:44.233Z,13.30
2019-01-29T21:20:22.629Z,13.40
2019-01-29T21:22:56.687Z,13.50
2019-01-29T21:25:31.885Z,13.60
2019-01-29T21:28:06.832Z,13.60
2019-01-29T21:30:44.180Z,13.70
2019-01-29T21:33:18.638Z,13.80
2019-01-29T21:35:53.015Z,13.80
2019-01-29T21:38:27.325Z,13.70
2019-01-29T21:41:02.465Z,13.70
2019-01-29T21:43:39.274Z,13.70
2019-01-29T21:46:13.305Z,13.80
2019-01-29T21:48:47.911Z,13.70
2019-01-29T21:51:22.619Z,13.80
2019-01-29T21:53:58.913Z,13.80
2019-01-29T21:56:34.138Z,13.90
2019-01-29T21:59:13.311Z,14.00
2019-01-29T22:01:46.589Z,14.10
2019-01-29T22:04:21.638Z,14.00
2019-01-29T22:06:56.654Z,14.00
2019-01-29T22:09:31.442Z,14.10
2019-01-29T22:12:07.547Z,14.10
2019-01-29T22:14:42.879Z,13.90
2019-01-29T22:17:18.356Z,13.80
2019-01-29T22:19:52.765Z,13.70
2019-01-29T22:22:27.587Z,13.70
2019-01-29T22:25:01.529Z,13.80
2019-01-29T22:27:35.860Z,13.90
2019-01-29T22:30:16.537Z,14.00
2019-01-29T22:32:50.336Z,14.00
2019-01-29T22:35:24.555Z,14.00
2019-01-29T22:37:59.636Z,14.00
2019-01-29T22:40:34.820Z,13.90
2019-01-29T22:43:11.277Z,13.90
2019-01-29T22:45:46.178Z,13.90
2019-01-29T22:48:21.924Z,14.00
2019-01-29T22:50:56.748Z,14.10
2019-01-29T22:53:33.882Z,14.20
2019-01-29T22:56:08.257Z,14.30
2019-01-29T22:58:44.120Z,14.20
2019-01-29T23:01:45.557Z,14.00
2019-01-29T23:04:32.112Z,14.10
2019-01-29T23:07:23.475Z,14.10
2019-01-29T23:09:58.616Z,14.00
2019-01-29T23:12:34.094Z,14.00
2019-01-29T23:15:11.407Z,14.00
2019-01-29T23:17:47.316Z,14.00
2019-01-29T23:20:23.399Z,14.00
2019-01-29T23:22:57.538Z,13.90
2019-01-29T23:25:32.104Z,13.80
2019-01-29T23:28:06.854Z,13.80
2019-01-29T23:30:41.502Z,13.80
2019-01-29T23:33:18.391Z,13.70
2019-01-29T23:35:53.287Z,13.80
2019-01-29T23:38:28.322Z,13.80
2019-01-29T23:41:03.372Z,13.80
2019-01-29T23:43:38.595Z,13.70
2019-01-29T23:46:13.512Z,13.60
2019-01-29T23:48:47.961Z,13.70
2019-01-29T23:51:23.474Z,13.60
2019-01-29T23:53:58.978Z,13.70
2019-01-29T23:56:34.876Z,13.70
2019-01-29T23:59:10.244Z,13.60
